ACA856 TNCM-TKPK
Flight info
| Callsign | ACA856 |
|---|---|
| Flight time | N/A |
| Altitude | 13000 |
| Route | MODOR2 MODOR DCT ZPATA DCT SKB |
| Aircraft | MD82/M-SDFGIJ1RWY/S |
Departure
| Time | 2026-05-03 23:04 |
|---|---|
| Airport | Princess Juliana International Airport (TNCM) |
Arrival
| Time | N/A |
|---|---|
| Airport | Robert L. Bradshaw International Airport (TKPK) |
| Time | Latitude | Longitude | Altitude | Speed | Heading |
|---|---|---|---|---|---|
| 2026-05-03 22:43 | 18.04329 | -63.11292 | 21 ft | 0 kts | 351° |
| 2026-05-03 22:55 | 18.04321 | -63.11291 | 23 ft | 2 kts | 351° |
| 2026-05-03 22:55 | 18.04305 | -63.11288 | 23 ft | 2 kts | 351° |
| 2026-05-03 22:55 | 18.04290 | -63.11283 | 22 ft | 2 kts | 281° |
| 2026-05-03 22:56 | 18.04290 | -63.11278 | 23 ft | 0 kts | 258° |
| 2026-05-03 22:59 | 18.04287 | -63.11288 | 25 ft | 8 kts | 253° |
| 2026-05-03 22:59 | 18.04248 | -63.11355 | 23 ft | 12 kts | 239° |
| 2026-05-03 22:59 | 18.04227 | -63.11441 | 23 ft | 13 kts | 246° |
| 2026-05-03 23:00 | 18.04177 | -63.11528 | 23 ft | 15 kts | 237° |
| 2026-05-03 23:00 | 18.04112 | -63.11621 | 22 ft | 17 kts | 232° |
| 2026-05-03 23:00 | 18.04060 | -63.11720 | 21 ft | 15 kts | 257° |
| 2026-05-03 23:00 | 18.04043 | -63.11828 | 21 ft | 7 kts | 262° |
| 2026-05-03 23:01 | 18.04042 | -63.11839 | 22 ft | 0 kts | 262° |
| 2026-05-03 23:01 | 18.04041 | -63.11848 | 21 ft | 6 kts | 262° |
| 2026-05-03 23:01 | 18.04028 | -63.11898 | 22 ft | 8 kts | 243° |
| 2026-05-03 23:01 | 18.03993 | -63.11944 | 22 ft | 8 kts | 212° |
| 2026-05-03 23:02 | 18.03943 | -63.11945 | 23 ft | 4 kts | 148° |
| 2026-05-03 23:02 | 18.03937 | -63.11928 | 23 ft | 2 kts | 83° |
| 2026-05-03 23:02 | 18.03945 | -63.11904 | 23 ft | 4 kts | 64° |
| 2026-05-03 23:02 | 18.03952 | -63.11872 | 23 ft | 2 kts | 80° |
| 2026-05-03 23:03 | 18.03961 | -63.11815 | 22 ft | 27 kts | 81° |
| 2026-05-03 23:04 | 18.04027 | -63.11361 | 22 ft | 103 kts | 82° |
| 2026-05-03 23:04 | 18.04169 | -63.10369 | 41 ft | 168 kts | 80° |
| 2026-05-03 23:04 | 18.04273 | -63.09094 | 914 ft | 166 kts | 99° |
| 2026-05-03 23:04 | 18.03749 | -63.08097 | 2077 ft | 166 kts | 140° |
| 2026-05-03 23:05 | 18.02674 | -63.07646 | 3046 ft | 164 kts | 165° |
| 2026-05-03 23:05 | 18.01495 | -63.07657 | 3853 ft | 175 kts | 189° |
| 2026-05-03 23:05 | 18.00444 | -63.08196 | 3920 ft | 175 kts | 214° |
| 2026-05-03 23:05 | 17.99508 | -63.09197 | 3910 ft | 206 kts | 220° |
| 2026-05-03 23:06 | 17.98328 | -63.10152 | 4361 ft | 215 kts | 204° |
| 2026-05-03 23:06 | 17.96985 | -63.10690 | 5184 ft | 209 kts | 191° |
| 2026-05-03 23:06 | 17.95545 | -63.11091 | 5290 ft | 208 kts | 178° |
| 2026-05-03 23:06 | 17.94208 | -63.10758 | 4875 ft | 198 kts | 144° |